»·PEaware :: N592BC KSNA-KSBA

N592BC :: KSNA-KSBA

FLIGHT INFORMATION

Flight Status: Arrived
Operator: Privately registered:
United States
More flights under this callsign
Pilot: Roger W. (24)
Aircraft: BEECH AIRCRAFT SUPER KING AIR COMMUTER
(BE20)
More flights by this aircraft type
Origin: KSNA John Wayne-Orange Co
United States
Destination: KSBA Santa Barbara Mun
United States
More flights between these airports :: More routes between these airports
Route: +SXC V208 VTU VTU282R KWANG
File this flight plan on PilotEdge
Remarks: TEC route CSTN28
Altitude:
(Current/Filed)
8,000ft
Speed:
(Current/Filed)
250kts
Departed: 06-Jan-18 08:30 PM
Arrived: 06-Jan-18 09:10 PM
Distance/Time
Traveled:
108nm/0:40
Distance/Time
To Go:
Arrived

Flight Plot

Page will automatically refresh every two minutes.


Map Options




Map Legend


Flown Route
Filed Route
Departure Airport
Arrival Airport
Navaid (VOR, NDB)
Fix

Horizontal Profiles

Position Reports

Time Latitude Longitude Heading Altitude Ground
Speed
06-Jan-18 19:59 33.679017 -117.869584 298 60ft 0kts
06-Jan-18 20:00 33.679017 -117.869584 298 60ft 0kts
06-Jan-18 20:01 33.679017 -117.869584 298 60ft 0kts
06-Jan-18 20:02 33.679017 -117.869584 298 60ft 0kts
06-Jan-18 20:03 33.679017 -117.869584 298 60ft 0kts
06-Jan-18 20:04 33.679017 -117.869584 298 60ft 0kts
06-Jan-18 20:05 33.679017 -117.869584 298 60ft 0kts
06-Jan-18 20:06 33.679017 -117.869584 298 60ft 0kts
06-Jan-18 20:07 33.679017 -117.869584 298 60ft 0kts
06-Jan-18 20:08 33.679017 -117.869584 298 60ft 0kts
06-Jan-18 20:09 33.679017 -117.869584 298 60ft 0kts
06-Jan-18 20:10 33.679017 -117.869584 298 60ft 0kts
06-Jan-18 20:11 33.679017 -117.869584 298 60ft 0kts
06-Jan-18 20:12 33.679017 -117.869584 298 60ft 0kts
06-Jan-18 20:13 33.679017 -117.869584 298 60ft 0kts
06-Jan-18 20:14 33.679017 -117.869584 298 60ft 0kts
06-Jan-18 20:15 33.679017 -117.869584 298 60ft 0kts
06-Jan-18 20:16 33.679017 -117.869584 298 60ft 0kts
06-Jan-18 20:17 33.679017 -117.869584 298 60ft 0kts
06-Jan-18 20:18 33.679017 -117.869584 298 60ft 0kts
06-Jan-18 20:19 33.679017 -117.869584 298 60ft 0kts
06-Jan-18 20:20 33.679017 -117.869584 298 60ft 0kts
06-Jan-18 20:21 33.679017 -117.869584 298 60ft 0kts
06-Jan-18 20:22 33.679017 -117.869585 298 60ft 0kts
06-Jan-18 20:23 33.679018 -117.869586 298 60ft 0kts
06-Jan-18 20:24 33.679018 -117.869587 298 60ft 0kts
06-Jan-18 20:25 33.679019 -117.869588 298 60ft 0kts
06-Jan-18 20:26 33.679024 -117.869599 298 60ft 0kts
06-Jan-18 20:27 33.678944 -117.869552 48 60ft 0kts
06-Jan-18 20:28 33.678952 -117.869477 99 60ft 0kts
06-Jan-18 20:29 33.678942 -117.869434 109 60ft 0kts
06-Jan-18 20:30 33.678869 -117.869254 120 60ft 7kts
06-Jan-18 20:31 33.681015 -117.867325 45 60ft 4kts
06-Jan-18 20:32 33.680968 -117.866720 114 60ft 0kts
06-Jan-18 20:33 33.680967 -117.866716 114 60ft 0kts
06-Jan-18 20:34 33.680966 -117.866712 113 60ft 0kts
06-Jan-18 20:35 33.680587 -117.865905 148 60ft 9kts
06-Jan-18 20:36 33.674386 -117.869579 206 62ft 112kts
06-Jan-18 20:37 33.636356 -117.882945 182 2107ft 158kts
06-Jan-18 20:38 33.587948 -117.884663 182 3982ft 187kts
06-Jan-18 20:39 33.538553 -117.902353 212 5792ft 186kts
06-Jan-18 20:40 33.486017 -117.935364 212 6008ft 234kts
06-Jan-18 20:41 33.426670 -117.973515 212 6009ft 248kts
06-Jan-18 20:42 33.365806 -118.014239 224 6005ft 248kts
06-Jan-18 20:43 33.354960 -118.089466 276 6020ft 238kts
06-Jan-18 20:44 33.360747 -118.166023 274 6790ft 215kts
06-Jan-18 20:45 33.364809 -118.235261 274 7967ft 206kts
06-Jan-18 20:46 33.369329 -118.308514 274 8003ft 229kts
06-Jan-18 20:47 33.373240 -118.385297 274 8011ft 232kts
06-Jan-18 20:48 33.400684 -118.454539 304 8010ft 235kts
06-Jan-18 20:49 33.442002 -118.515416 307 7999ft 236kts
06-Jan-18 20:50 33.484408 -118.575717 307 7995ft 236kts
06-Jan-18 20:51 33.526660 -118.635988 307 7991ft 237kts
06-Jan-18 20:52 33.568958 -118.696466 307 7988ft 237kts
06-Jan-18 20:53 33.611308 -118.757122 307 7998ft 236kts
06-Jan-18 20:54 33.653497 -118.817687 307 7996ft 236kts
06-Jan-18 20:55 33.695678 -118.878313 307 7995ft 237kts
06-Jan-18 20:56 33.738071 -118.939332 307 7993ft 237kts
06-Jan-18 20:57 33.781799 -118.998618 323 7991ft 240kts
06-Jan-18 20:58 33.846955 -119.020257 348 7983ft 242kts
06-Jan-18 20:59 33.914683 -119.028781 349 7999ft 246kts
06-Jan-18 21:00 33.983235 -119.036284 351 7998ft 248kts
06-Jan-18 21:01 34.052219 -119.043082 351 7998ft 247kts
06-Jan-18 21:02 34.117292 -119.061518 312 7720ft 241kts
06-Jan-18 21:03 34.149822 -119.129247 295 6721ft 228kts
06-Jan-18 21:04 34.177131 -119.196676 296 6006ft 214kts
06-Jan-18 21:05 34.203157 -119.259598 296 5989ft 212kts
06-Jan-18 21:06 34.229938 -119.323916 296 5989ft 215kts
06-Jan-18 21:07 34.256856 -119.388477 297 5990ft 215kts
06-Jan-18 21:08 34.284311 -119.453678 297 5380ft 221kts
06-Jan-18 21:09 34.311940 -119.520110 297 4155ft 214kts
06-Jan-18 21:10 34.335864 -119.581460 294 3766ft 192kts
06-Jan-18 21:11 34.358003 -119.645653 296 2254ft 220kts
06-Jan-18 21:12 34.384391 -119.707627 300 1713ft 207kts
06-Jan-18 21:13 34.402790 -119.754262 289 1809ft 144kts
06-Jan-18 21:14 34.419226 -119.800759 299 979ft 155kts
06-Jan-18 21:15 34.427808 -119.839061 271 14ft 92kts
06-Jan-18 21:16 34.426999 -119.846771 171 14ft 0kts

Navigation Log

Ident Type
1. KSNA Airport
2. SXC Navaid
3. WEEZL Fix
4. VTU Navaid
5. KWANG Fix
6. KSBA Airport